EGPF

Glasgow International Airport

Airport
ICAO code
EGPF
IATA Code
GLA
Summary
ICAO Region
EUR
ICAO Territory
Location

Paisley, Scotland

Serving
Glasgow
Elevation
26 ft
Coordinates
55° 52' 5" N , 4° 26' 9" W
KCC
Metar
Observation
EGPF 260750Z AUTO 26008KT 9999 NCD 10/05 Q1003
Station
Glasgow Airport
Date/Time
2022-09-26 07:50:00
Wind direction
260°
Wind speed
08 kts
Lowest cloud amount
no clouds detected
Temperature
10°C
Dew point
5°C
Humidity
71%
QNH
1003 hPa
Weather condition
n/a

Description

A domestic and international airport serving the City of Glasgow and the surrounding region.

Climatology

Temperate Marine climate/Oceanic climate (Köppen climate classification Cfb). Moderately cool summer and comparatively warm winter with a temperature range of only 14°C. Prevailing south-westerly winds from the Atlantic Ocean.

Runways

Designator Length Width Surface Rops
9/27 1104 46 ASP Yes/Yes
5/23 2658 46 ASP Yes/Yes

SKYbrary Partners:

Safety knowledge contributed by: